Pagrindinis puslapis
METAR-TAF:

METAR-TAF

Oro uostai :

Karlstadas, Švedija

platuma: 59-26-41N, ilguma: 013-20-15E, Aukštis: 107 m

Dabartinis oras

Ataskaita buvo paskelbta 22 minutes, ne 21:20 UTC
Vėjas 5 kt iš Rytų
Temperatūra 14°C
Drėgmė 82%
Slėgis 1011 hPa
Matomumas 10 km arba daugiau

METAR: ESOK 162120Z AUTO 09005KT 9999 FEW084/// 14/11 Q1011

Laikas: 23:42 (21:42 UTC)

Prognozė

Ataskaita buvo paskelbta 7 valandos ir 12 minutes, ne 14:30 UTC
Prognozė galioja nuo 16 metu 15 UTC su 16 metu 18 UTC
Vėjas 10 kt iš Pietų
Matomumas 10 km arba daugiau
nėra debesų žemiau 1500 m ir nėra kamuolinių lietaus debesų
Laikinai
nuo 16 metu 15 UTC su 16 metu 18 UTC
Išsisklaidę debesys ne aukštis 3000 ft, Liūtiniai kamuoliniai debesys.
lietus
Tikimybė 40%
nuo 16 metu 15 UTC su 16 metu 18 UTC
perkūnija, lietus
Tapsmas
nuo 16 metu 16 UTC su 16 metu 18 UTC
Vėjas 4 kt iš Rytų

TAF: ESOK 161430Z 1615/1618 17010KT CAVOK TEMPO 1615/1618 SHRA SCT030CB PROB40 1615/1618 TSRA BECMG 1616/1618 10004KT

Orai ataskaitas ir orų prognozės (METAR, TAF).

turimą stotys yra geltonos ir raudonos taškus žemėlapyje.

Perkelti pele per norėdami pamatyti stoties vardą.

Tada spustelėkite, norėdami matyti oro stebėjimo ir prognozės.

Norėdami pakeisti žemėlapį: spustelėkite ant žalios mygtukų su juodo kryžiaus žemyn,; žalią mygtuką su brūkšneliu, jei norite nutolinti; arba žalių rodyklių gretimoms žemėlapius.


METAR-TAF: